Ana Sayfa
METAR-TAF:

METAR-TAF

Havaalanları :

O. R. Tambo Uluslararası Havalimanı

Johannesburg, Güney Afrika

Enlem: 26-08S, Boylam: 028-14E, yükseklik: 1694 m

Güncel hava durumu gözlemi

Rapor saat 04:00 UTC de 58 dakika önce yapıldı.
Rüzgar kuzeydan 13 kt
Sıcaklık 13°C
Nem 82%
Basınç 1024 hPa
Görüş mesafesi 10 km veya daha fazla
1500 m altında bulut yok ve kümülonimbus yok

METAR: FAOR 250400Z 01013KT CAVOK 13/10 Q1024 NOSIG

Saat: 06:58 (04:58 UTC)

Tahmin

Rapor saat 22:00 UTC de 6 saat ve 58 dakika önce yapıldı.
Ayın 25'si saat 00 UTC'den ayın 26'si saat 06 UTC'ye kadar geçerli Tahmin
Rüzgar doğu/kuzeydoğudan 12 kt
Görüş mesafesi 10 km veya daha fazla
1500 m altında bulut yok ve kümülonimbus yok
Dönüşüyor
ayın 25'si saat 06 UTC'den ayın 25'si saat 08 UTC'ye kadar
Rüzgar kuzeydan 15 kt

TAF: FAOR 242200Z 2500/2606 06012KT CAVOK BECMG 2506/2508 36015KT TX27/2513Z TN13/2503Z

4.000'den fazla havaalanı için hava durumu gözlemleri ve tahminleri (METAR ve TAF raporları).

Kullanılabilir istasyonlar harita üzerinde sarı ve kırmızı noktalarla gösterilir.

İstasyonun adını görmek için fareyi noktanın üzerinde gezdirin.

Sonrasında hava gözlem ve tahminlerini görmek için tıklayın.

Haritayı değiştirmek için: yaklaştırmak için siyah artı işaretli yeşil düğmeye ve uzaklaştırmak için de eksi işaretli düğmeye hızla tıklayın; bitişik haritalar için yeşil okları kullanın.


METAR-TAF: